Time;durP1;ratioP1;P1;durP2;ratioP2;P2;SDS_P1;SDS_P2;PMS_P1;PMS_P2;Temp;Humidity;BMP_temperature;BMP_pressure;BME280_temperature;BME280_humidity;BME280_pressure;Samples;Min_cycle;Max_cycle;Signal;HPM_P1;HPM_P2
2023/08/13 00:01:45;;;;;;;16.52;5.63;;;;;;;;;;12876411;23;20003;-71
2023/08/13 00:06:46;;;;;;;5.38;3.22;;;;;;;;;;12879414;23;19997;-71
2023/08/13 00:11:46;;;;;;;4.23;3.20;;;;;;;;;;12857908;23;20003;-70
2023/08/13 00:16:47;;;;;;;5.97;2.95;;;;;;;;;;12880197;23;20594;-70
2023/08/13 00:21:47;;;;;;;4.75;3.30;;;;;;;;;;12865262;23;20023;-71
2023/08/13 00:26:48;;;;;;;5.13;3.60;;;;;;;;;;12879975;23;20221;-71
2023/08/13 00:31:48;;;;;;;4.10;3.13;;;;;;;;;;12879929;23;20051;-71
2023/08/13 00:36:48;;;;;;;4.55;2.83;;;;;;;;;;12879778;23;19993;-71
2023/08/13 00:41:49;;;;;;;4.80;2.90;;;;;;;;;;12879932;23;20016;-71
2023/08/13 00:46:49;;;;;;;3.97;2.90;;;;;;;;;;12879581;23;20293;-70
2023/08/13 00:51:49;;;;;;;5.70;2.92;;;;;;;;;;12879882;23;20279;-71
2023/08/13 00:56:50;;;;;;;4.40;2.70;;;;;;;;;;12879737;23;19996;-71
2023/08/13 01:01:51;;;;;;;5.40;3.63;;;;;;;;;;12879343;23;20005;-70
2023/08/13 01:07:11;;;;;;;2.97;2.47;;;;;;;;;;12856915;23;20230;-71
2023/08/13 01:12:36;;;;;;;4.20;3.50;;;;;;;;;;12879227;23;19995;-71
2023/08/13 01:17:37;;;;;;;7.35;3.83;;;;;;;;;;12856792;23;20060;-71
2023/08/13 01:22:38;;;;;;;5.87;4.20;;;;;;;;;;12860086;23;20001;-71
2023/08/13 01:27:48;;;;;;;9.32;3.92;;;;;;;;;;12878608;23;20553;-70
2023/08/13 01:32:56;;;;;;;8.43;4.35;;;;;;;;;;12878810;23;19992;-70
2023/08/13 01:37:58;;;;;;;7.47;4.00;;;;;;;;;;12878314;23;20040;-70
2023/08/13 01:42:58;;;;;;;6.88;4.78;;;;;;;;;;12878458;23;19992;-70
2023/08/13 01:47:58;;;;;;;4.80;4.10;;;;;;;;;;12856103;23;19993;-70
2023/08/13 01:52:58;;;;;;;8.80;5.25;;;;;;;;;;12878048;23;20199;-70
2023/08/13 01:57:59;;;;;;;5.65;4.40;;;;;;;;;;12877628;23;20321;-70
2023/08/13 02:02:59;;;;;;;6.77;4.53;;;;;;;;;;12855324;23;20301;-70
2023/08/13 02:07:59;;;;;;;5.25;4.30;;;;;;;;;;12878352;23;20067;-70
2023/08/13 02:12:59;;;;;;;9.13;5.15;;;;;;;;;;12877969;23;20270;-70
2023/08/13 02:18:00;;;;;;;8.50;4.63;;;;;;;;;;12877680;23;20195;-70
2023/08/13 02:23:00;;;;;;;5.78;4.80;;;;;;;;;;12857564;23;20020;-71
2023/08/13 02:28:00;;;;;;;4.47;3.97;;;;;;;;;;12876835;23;20019;-71
2023/08/13 02:33:00;;;;;;;4.15;3.38;;;;;;;;;;12877549;23;19992;-70
2023/08/13 02:38:01;;;;;;;4.55;3.40;;;;;;;;;;12877230;23;19988;-70
2023/08/13 02:43:02;;;;;;;3.53;3.10;;;;;;;;;;12877131;23;20305;-70
2023/08/13 02:48:02;;;;;;;5.70;3.40;;;;;;;;;;12877258;23;19984;-70
2023/08/13 02:53:02;;;;;;;6.95;3.90;;;;;;;;;;12877159;23;20190;-70
2023/08/13 02:58:03;;;;;;;5.53;3.65;;;;;;;;;;12877004;23;20140;-70
2023/08/13 03:03:03;;;;;;;5.10;3.60;;;;;;;;;;12877003;23;20214;-70
2023/08/13 03:08:03;;;;;;;4.60;3.88;;;;;;;;;;12876732;23;19985;-70
2023/08/13 03:13:04;;;;;;;8.43;3.73;;;;;;;;;;12877077;23;20000;-71
2023/08/13 03:18:04;;;;;;;4.18;3.45;;;;;;;;;;12876623;23;19997;-70
2023/08/13 03:23:05;;;;;;;4.30;3.88;;;;;;;;;;12853779;23;20294;-70
2023/08/13 03:28:05;;;;;;;6.63;3.60;;;;;;;;;;12876867;23;20004;-71
2023/08/13 03:33:05;;;;;;;5.97;4.03;;;;;;;;;;12876424;23;20275;-71
2023/08/13 03:38:06;;;;;;;6.18;3.95;;;;;;;;;;12876487;23;19985;-70
2023/08/13 03:43:06;;;;;;;4.68;3.95;;;;;;;;;;12880719;23;20016;-71
2023/08/13 03:48:06;;;;;;;4.15;3.58;;;;;;;;;;12881132;23;19989;-71
2023/08/13 03:53:06;;;;;;;5.35;4.47;;;;;;;;;;12858153;23;20004;-71
2023/08/13 03:58:07;;;;;;;5.30;3.83;;;;;;;;;;12881159;23;20051;-71
2023/08/13 04:03:09;;;;;;;8.38;5.05;;;;;;;;;;12880483;23;20232;-70
2023/08/13 04:08:09;;;;;;;13.68;5.88;;;;;;;;;;12880071;23;19993;-70
2023/08/13 04:13:09;;;;;;;8.60;5.35;;;;;;;;;;12880323;23;20182;-70
2023/08/13 04:18:09;;;;;;;10.25;5.57;;;;;;;;;;12880214;23;20013;-70
2023/08/13 04:23:10;;;;;;;8.75;6.03;;;;;;;;;;12858930;23;20286;-70
2023/08/13 04:28:10;;;;;;;8.55;6.05;;;;;;;;;;12879826;23;20322;-71
2023/08/13 04:33:10;;;;;;;12.52;5.32;;;;;;;;;;12880005;23;20279;-70
2023/08/13 04:38:10;;;;;;;11.65;7.95;;;;;;;;;;12879340;23;19988;-71
2023/08/13 04:43:11;;;;;;;8.27;5.38;;;;;;;;;;12879950;23;20004;-71
2023/08/13 04:48:11;;;;;;;13.23;5.80;;;;;;;;;;12879874;23;20190;-71
2023/08/13 04:53:11;;;;;;;7.38;5.47;;;;;;;;;;12856599;23;20305;-71
2023/08/13 04:58:11;;;;;;;10.23;5.93;;;;;;;;;;12879559;23;20059;-71
2023/08/13 05:03:12;;;;;;;12.35;6.15;;;;;;;;;;12879374;23;19996;-72
2023/08/13 05:08:12;;;;;;;8.55;5.43;;;;;;;;;;12879311;23;20098;-71
2023/08/13 05:13:16;;;;;;;13.63;5.82;;;;;;;;;;12878731;23;20190;-71
2023/08/13 05:18:16;;;;;;;5.18;4.68;;;;;;;;;;12878781;23;19988;-71
2023/08/13 05:23:16;;;;;;;9.90;5.93;;;;;;;;;;12878789;23;20079;-73
2023/08/13 05:28:17;;;;;;;15.05;5.57;;;;;;;;;;12878898;23;20027;-71
2023/08/13 05:33:17;;;;;;;6.20;3.60;;;;;;;;;;12878474;23;19999;-71
2023/08/13 05:38:17;;;;;;;7.20;3.37;;;;;;;;;;12879169;23;20370;-71
2023/08/13 05:43:17;;;;;;;7.30;3.53;;;;;;;;;;12878260;23;20051;-71
2023/08/13 05:48:18;;;;;;;6.40;3.40;;;;;;;;;;12878336;23;20205;-71
2023/08/13 05:53:18;;;;;;;4.00;3.00;;;;;;;;;;12878571;23;19992;-72
2023/08/13 05:58:18;;;;;;;3.97;2.80;;;;;;;;;;12878017;23;19993;-72
2023/08/13 06:03:19;;;;;;;9.40;3.13;;;;;;;;;;12878208;23;20000;-71
2023/08/13 06:08:19;;;;;;;5.15;3.03;;;;;;;;;;12877942;23;20278;-72
2023/08/13 06:13:19;;;;;;;4.72;2.90;;;;;;;;;;12856059;23;20003;-71
2023/08/13 06:18:24;;;;;;;6.55;3.35;;;;;;;;;;12876820;23;20060;-71
2023/08/13 06:23:24;;;;;;;6.20;3.00;;;;;;;;;;12877374;23;20069;-71
2023/08/13 06:28:24;;;;;;;5.57;3.35;;;;;;;;;;12877420;23;20182;-71
2023/08/13 06:33:25;;;;;;;4.67;3.00;;;;;;;;;;12876692;23;20000;-72
2023/08/13 06:38:26;;;;;;;5.93;2.70;;;;;;;;;;12877596;23;19996;-72
2023/08/13 06:43:26;;;;;;;11.27;2.22;;;;;;;;;;12877168;23;20451;-72
2023/08/13 06:48:27;;;;;;;5.20;3.13;;;;;;;;;;12876862;23;20047;-71
2023/08/13 06:53:27;;;;;;;5.60;2.40;;;;;;;;;;12877593;23;20186;-71
2023/08/13 06:58:27;;;;;;;5.35;1.90;;;;;;;;;;12877285;23;20424;-72
2023/08/13 07:03:27;;;;;;;4.55;2.30;;;;;;;;;;12877031;23;20031;-72
2023/08/13 07:08:28;;;;;;;3.88;2.38;;;;;;;;;;12877843;23;19988;-72
2023/08/13 07:13:28;;;;;;;6.05;2.72;;;;;;;;;;12876530;23;20008;-72
2023/08/13 07:18:28;;;;;;;5.75;2.20;;;;;;;;;;12875331;23;19992;-72
2023/08/13 07:23:29;;;;;;;4.22;2.00;;;;;;;;;;12876056;23;20063;-71
2023/08/13 07:28:29;;;;;;;5.68;2.08;;;;;;;;;;12876715;23;19984;-71
2023/08/13 07:33:30;;;;;;;5.72;2.30;;;;;;;;;;12876459;23;20454;-71
2023/08/13 07:38:31;;;;;;;2.70;2.10;;;;;;;;;;12876256;23;19996;-71
2023/08/13 07:43:31;;;;;;;5.27;2.20;;;;;;;;;;12854651;23;20005;-71
2023/08/13 07:48:31;;;;;;;4.30;1.90;;;;;;;;;;12876271;23;20057;-71
2023/08/13 07:53:32;;;;;;;5.80;2.30;;;;;;;;;;12875920;23;20070;-71
2023/08/13 07:58:32;;;;;;;4.78;1.67;;;;;;;;;;12876169;23;19992;-71
2023/08/13 08:03:33;;;;;;;3.05;1.67;;;;;;;;;;12876300;23;20005;-71
2023/08/13 08:08:33;;;;;;;8.10;1.92;;;;;;;;;;12875655;23;20170;-71
2023/08/13 08:13:33;;;;;;;3.45;2.10;;;;;;;;;;12875616;23;19992;-72
2023/08/13 08:18:33;;;;;;;5.75;2.00;;;;;;;;;;12874943;23;20015;-71
2023/08/13 08:23:34;;;;;;;2.58;2.05;;;;;;;;;;12853669;23;20020;-72
2023/08/13 08:28:34;;;;;;;4.85;1.80;;;;;;;;;;12879110;23;19995;-69
2023/08/13 08:33:34;;;;;;;5.53;2.10;;;;;;;;;;12880103;23;20008;-71
2023/08/13 08:38:34;;;;;;;3.60;2.30;;;;;;;;;;12879570;23;20008;-71
2023/08/13 08:43:38;;;;;;;4.47;1.50;;;;;;;;;;12879245;23;20306;-71
2023/08/13 08:48:39;;;;;;;2.00;1.60;;;;;;;;;;12879502;23;20279;-71
2023/08/13 08:53:39;;;;;;;1.83;1.60;;;;;;;;;;12879043;23;20004;-71
2023/08/13 08:58:40;;;;;;;1.67;1.48;;;;;;;;;;12879374;23;19993;-72
2023/08/13 09:03:40;;;;;;;2.05;1.70;;;;;;;;;;12879130;23;19996;-72
2023/08/13 09:08:40;;;;;;;2.80;1.95;;;;;;;;;;12879506;23;20000;-72
2023/08/13 09:13:48;;;;;;;3.58;1.33;;;;;;;;;;12878983;23;20282;-72
2023/08/13 09:18:50;;;;;;;3.20;1.90;;;;;;;;;;12876278;23;20003;-72
2023/08/13 09:23:53;;;;;;;4.25;1.50;;;;;;;;;;12878456;23;20035;-72
2023/08/13 09:28:54;;;;;;;3.78;2.03;;;;;;;;;;12879034;23;20080;-71
2023/08/13 09:33:55;;;;;;;2.70;1.95;;;;;;;;;;12878437;23;20225;-72
2023/08/13 09:38:55;;;;;;;3.28;1.75;;;;;;;;;;12877882;23;20034;-72
2023/08/13 09:43:59;;;;;;;6.55;2.40;;;;;;;;;;12878431;23;20310;-72
2023/08/13 09:49:02;;;;;;;4.57;2.40;;;;;;;;;;12878241;23;20287;-72
2023/08/13 09:54:14;;;;;;;5.07;2.15;;;;;;;;;;12878209;23;19996;-71
2023/08/13 09:59:14;;;;;;;2.83;2.20;;;;;;;;;;12878090;23;19993;-71
2023/08/13 10:04:15;;;;;;;7.78;2.00;;;;;;;;;;12878205;23;19997;-72
2023/08/13 10:09:16;;;;;;;3.28;2.30;;;;;;;;;;12877471;23;20336;-72
2023/08/13 10:14:17;;;;;;;5.03;2.13;;;;;;;;;;12854987;23;20114;-71
2023/08/13 10:19:20;;;;;;;3.22;2.05;;;;;;;;;;12873783;23;19997;-72
2023/08/13 10:24:22;;;;;;;5.20;2.30;;;;;;;;;;12854741;23;20071;-71
2023/08/13 10:29:22;;;;;;;4.88;1.98;;;;;;;;;;12877180;23;19984;-71
2023/08/13 10:34:38;;;;;;;3.17;1.67;;;;;;;;;;12877477;23;19989;-72
2023/08/13 10:39:42;;;;;;;2.80;1.63;;;;;;;;;;12877360;23;20044;-72
2023/08/13 10:44:42;;;;;;;2.65;1.80;;;;;;;;;;12854847;23;20260;-71
2023/08/13 10:49:42;;;;;;;2.17;1.67;;;;;;;;;;12877210;23;20007;-72
2023/08/13 10:54:42;;;;;;;9.70;2.00;;;;;;;;;;12877221;23;20549;-72
2023/08/13 10:59:44;;;;;;;3.70;1.50;;;;;;;;;;12876567;23;19993;-72
2023/08/13 11:04:45;;;;;;;6.68;2.05;;;;;;;;;;12876484;23;20004;-72
2023/08/13 11:09:46;;;;;;;2.40;2.20;;;;;;;;;;12876743;23;19996;-72
2023/08/13 11:14:46;;;;;;;2.42;2.03;;;;;;;;;;12876487;23;19996;-72
2023/08/13 11:19:46;;;;;;;4.30;2.37;;;;;;;;;;12861543;23;20013;-72
2023/08/13 11:24:46;;;;;;;2.70;2.40;;;;;;;;;;12854182;23;20011;-72
2023/08/13 11:29:47;;;;;;;2.45;2.25;;;;;;;;;;12858317;23;20232;-71
2023/08/13 11:34:47;;;;;;;2.88;2.50;;;;;;;;;;12858404;23;20000;-73
2023/08/13 11:39:47;;;;;;;3.80;2.53;;;;;;;;;;12858982;23;20202;-74
2023/08/13 11:44:48;;;;;;;4.40;3.15;;;;;;;;;;12836502;23;20001;-74
2023/08/13 11:49:49;;;;;;;3.17;2.67;;;;;;;;;;12835832;23;19997;-77
2023/08/13 11:54:49;;;;;;;2.88;2.42;;;;;;;;;;12858709;23;20505;-76
2023/08/13 11:59:50;;;;;;;6.82;2.88;;;;;;;;;;12860179;23;20082;-70
2023/08/13 12:04:50;;;;;;;3.42;2.83;;;;;;;;;;12862822;23;20024;-72
2023/08/13 12:09:50;;;;;;;3.25;2.20;;;;;;;;;;12862747;23;20210;-72
2023/08/13 12:14:50;;;;;;;5.72;2.80;;;;;;;;;;12862710;23;20000;-70
2023/08/13 12:19:53;;;;;;;3.78;2.92;;;;;;;;;;12855248;23;20012;-71
2023/08/13 12:24:53;;;;;;;3.40;2.63;;;;;;;;;;12842817;23;20005;-72
2023/08/13 12:29:53;;;;;;;2.97;2.67;;;;;;;;;;12862727;23;19992;-71
2023/08/13 12:34:54;;;;;;;5.32;2.90;;;;;;;;;;12861801;23;19992;-72
2023/08/13 12:39:54;;;;;;;7.88;3.30;;;;;;;;;;12862240;23;20007;-71
2023/08/13 12:44:54;;;;;;;2.92;2.60;;;;;;;;;;12862230;23;20011;-71
2023/08/13 12:49:54;;;;;;;7.18;2.88;;;;;;;;;;12861266;23;19989;-73
2023/08/13 12:54:55;;;;;;;4.35;2.75;;;;;;;;;;12860710;23;20039;-70
2023/08/13 12:59:55;;;;;;;5.07;2.28;;;;;;;;;;12862008;23;20154;-71
2023/08/13 13:04:55;;;;;;;13.25;3.10;;;;;;;;;;12861658;23;19989;-71
2023/08/13 13:09:56;;;;;;;5.32;3.15;;;;;;;;;;12861288;23;20067;-71
2023/08/13 13:14:57;;;;;;;4.65;2.40;;;;;;;;;;12860852;23;20262;-72
2023/08/13 13:19:58;;;;;;;5.25;3.13;;;;;;;;;;12853902;23;20051;-72
2023/08/13 13:24:58;;;;;;;3.92;3.10;;;;;;;;;;12860575;23;20004;-71
2023/08/13 13:29:58;;;;;;;5.13;3.08;;;;;;;;;;12861904;23;20287;-72
2023/08/13 13:34:59;;;;;;;3.05;2.75;;;;;;;;;;12837820;23;20005;-68
2023/08/13 13:39:59;;;;;;;5.20;2.83;;;;;;;;;;12857394;23;20020;-71
2023/08/13 13:44:59;;;;;;;4.63;2.92;;;;;;;;;;12859202;23;19993;-70
2023/08/13 13:49:59;;;;;;;6.43;2.63;;;;;;;;;;12837100;23;20271;-70
2023/08/13 13:55:00;;;;;;;4.82;2.90;;;;;;;;;;12859537;23;19992;-71
2023/08/13 14:00:00;;;;;;;5.20;3.23;;;;;;;;;;12859408;23;19997;-71
2023/08/13 14:05:01;;;;;;;3.88;3.17;;;;;;;;;;12859541;23;20225;-72
2023/08/13 14:10:05;;;;;;;7.17;3.07;;;;;;;;;;12860255;23;20221;-71
2023/08/13 14:15:06;;;;;;;4.70;2.75;;;;;;;;;;12864992;23;20287;-69
2023/08/13 14:20:08;;;;;;;6.15;2.78;;;;;;;;;;12857449;23;20009;-69
2023/08/13 14:25:09;;;;;;;7.13;3.00;;;;;;;;;;12865284;23;20318;-76
2023/08/13 14:30:09;;;;;;;6.90;2.83;;;;;;;;;;12869222;23;19985;-72
2023/08/13 14:35:10;;;;;;;5.00;2.97;;;;;;;;;;12864502;23;19992;-71
2023/08/13 14:40:11;;;;;;;6.07;2.87;;;;;;;;;;12864808;23;20027;-77
2023/08/13 14:45:11;;;;;;;8.82;3.33;;;;;;;;;;12864440;23;20278;-77
2023/08/13 14:50:11;;;;;;;5.25;2.50;;;;;;;;;;12871430;23;20024;-81
2023/08/13 14:55:12;;;;;;;4.10;2.70;;;;;;;;;;12847604;23;19992;-73
2023/08/13 15:00:13;;;;;;;4.85;2.90;;;;;;;;;;12869079;23;20001;-78
2023/08/13 15:05:14;;;;;;;4.20;3.08;;;;;;;;;;12871617;23;20132;-80
2023/08/13 15:10:14;;;;;;;4.00;2.80;;;;;;;;;;12873104;23;20007;-80
2023/08/13 15:15:14;;;;;;;3.83;3.20;;;;;;;;;;12873739;23;20232;-80
2023/08/13 15:20:15;;;;;;;5.27;2.67;;;;;;;;;;12847770;23;20187;-78
2023/08/13 15:25:15;;;;;;;3.93;2.80;;;;;;;;;;12867825;23;20516;-74
2023/08/13 15:30:16;;;;;;;4.23;2.83;;;;;;;;;;12845533;23;20007;-75
2023/08/13 15:35:17;;;;;;;6.78;4.10;;;;;;;;;;12867456;23;19993;-74
2023/08/13 15:40:17;;;;;;;5.47;3.30;;;;;;;;;;12867319;23;20009;-73
2023/08/13 15:45:17;;;;;;;5.47;3.42;;;;;;;;;;12843959;23;20016;-77
2023/08/13 15:50:18;;;;;;;4.53;2.92;;;;;;;;;;12845707;23;20096;-76
2023/08/13 15:55:18;;;;;;;9.13;2.95;;;;;;;;;;12867443;23;19996;-78
2023/08/13 16:00:18;;;;;;;3.50;2.50;;;;;;;;;;12867995;23;20039;-75
2023/08/13 16:05:18;;;;;;;6.45;2.92;;;;;;;;;;12866122;23;20295;-73
2023/08/13 16:10:19;;;;;;;5.95;2.67;;;;;;;;;;12844175;23;20024;-77
2023/08/13 16:15:19;;;;;;;8.80;3.50;;;;;;;;;;12868061;23;20003;-80
2023/08/13 16:20:19;;;;;;;4.80;3.00;;;;;;;;;;12859270;23;20013;-79
2023/08/13 16:25:20;;;;;;;6.00;3.33;;;;;;;;;;12867318;23;20055;-76
2023/08/13 16:30:20;;;;;;;6.87;2.40;;;;;;;;;;12866476;23;19989;-74
2023/08/13 16:35:20;;;;;;;6.18;3.20;;;;;;;;;;12867111;23;20001;-72
2023/08/13 16:40:21;;;;;;;5.18;3.08;;;;;;;;;;12844219;23;20023;-74
2023/08/13 16:45:21;;;;;;;3.60;2.40;;;;;;;;;;12846444;23;20000;-72
2023/08/13 16:50:21;;;;;;;2.83;2.57;;;;;;;;;;12871701;23;20291;-65
2023/08/13 16:55:22;;;;;;;4.68;3.00;;;;;;;;;;12872074;23;20572;-65
2023/08/13 17:00:22;;;;;;;5.18;2.70;;;;;;;;;;12872073;23;20012;-65
2023/08/13 17:05:23;;;;;;;9.13;2.83;;;;;;;;;;12872283;23;20063;-65
2023/08/13 17:10:23;;;;;;;4.90;2.95;;;;;;;;;;12871837;23;19996;-64
2023/08/13 17:15:23;;;;;;;4.50;3.17;;;;;;;;;;12871221;23;20282;-64
2023/08/13 17:20:23;;;;;;;11.00;9.68;;;;;;;;;;12862862;23;20035;-65
2023/08/13 17:25:24;;;;;;;5.70;3.40;;;;;;;;;;12870855;23;19989;-65
2023/08/13 17:30:24;;;;;;;432.88;397.05;;;;;;;;;;12870586;23;19993;-66
2023/08/13 17:35:24;;;;;;;5.75;4.28;;;;;;;;;;12871841;23;20186;-66
2023/08/13 17:40:25;;;;;;;145.20;134.02;;;;;;;;;;12871814;23;20182;-66
2023/08/13 17:45:25;;;;;;;4.00;2.88;;;;;;;;;;12871746;23;20059;-66
2023/08/13 17:50:25;;;;;;;13.87;5.13;;;;;;;;;;12871367;23;20019;-67
2023/08/13 17:55:26;;;;;;;4.63;3.75;;;;;;;;;;12871608;23;20421;-67
2023/08/13 18:00:26;;;;;;;5.13;3.63;;;;;;;;;;12870112;23;20310;-67
2023/08/13 18:05:26;;;;;;;5.03;3.45;;;;;;;;;;12871186;23;20301;-67
2023/08/13 18:10:26;;;;;;;4.97;3.08;;;;;;;;;;12847289;23;19993;-67
2023/08/13 18:15:27;;;;;;;5.43;3.70;;;;;;;;;;12834052;23;20020;-67
2023/08/13 18:20:27;;;;;;;4.78;3.80;;;;;;;;;;12825813;23;20024;-67
2023/08/13 18:25:27;;;;;;;6.28;3.58;;;;;;;;;;12836887;23;19993;-67
2023/08/13 18:30:28;;;;;;;6.82;3.90;;;;;;;;;;12835995;23;20324;-67
2023/08/13 18:35:28;;;;;;;5.20;3.50;;;;;;;;;;12837102;23;20007;-65
2023/08/13 18:40:28;;;;;;;7.05;4.53;;;;;;;;;;12837564;23;19993;-66
2023/08/13 18:45:29;;;;;;;8.70;3.83;;;;;;;;;;12813781;23;19996;-66
2023/08/13 18:50:30;;;;;;;5.93;4.32;;;;;;;;;;12835761;23;20020;-66
2023/08/13 18:55:31;;;;;;;7.33;3.93;;;;;;;;;;12838059;23;20019;-67
2023/08/13 19:00:31;;;;;;;9.38;4.20;;;;;;;;;;12813033;23;19996;-67
2023/08/13 19:05:31;;;;;;;9.27;3.42;;;;;;;;;;12834504;23;20302;-68
2023/08/13 19:10:34;;;;;;;4.00;3.35;;;;;;;;;;12822023;23;20661;-68
2023/08/13 19:15:34;;;;;;;13.07;3.65;;;;;;;;;;12834893;23;20251;-66
2023/08/13 19:20:35;;;;;;;7.32;3.92;;;;;;;;;;12823217;23;20313;-66
2023/08/13 19:25:35;;;;;;;6.60;3.77;;;;;;;;;;12838101;23;20069;-67
2023/08/13 19:30:35;;;;;;;10.17;4.17;;;;;;;;;;12829925;23;20043;-68
2023/08/13 19:35:37;;;;;;;6.40;4.50;;;;;;;;;;12830668;23;20177;-68
2023/08/13 19:40:41;;;;;;;4.78;3.55;;;;;;;;;;12835212;23;19997;-67
2023/08/13 19:45:41;;;;;;;6.65;4.30;;;;;;;;;;12833606;23;20427;-66
2023/08/13 19:50:44;;;;;;;10.25;3.97;;;;;;;;;;12832698;23;20009;-73
2023/08/13 19:55:45;;;;;;;8.45;4.70;;;;;;;;;;12835684;23;20004;-71
2023/08/13 20:00:45;;;;;;;6.22;4.30;;;;;;;;;;12804622;23;20008;-71
2023/08/13 20:05:45;;;;;;;8.17;3.97;;;;;;;;;;12866493;23;19995;-72
2023/08/13 20:10:46;;;;;;;7.63;4.40;;;;;;;;;;12868833;23;20461;-69
2023/08/13 20:15:47;;;;;;;9.88;4.07;;;;;;;;;;12869226;23;20298;-75
2023/08/13 20:20:53;;;;;;;6.13;3.80;;;;;;;;;;12858298;23;20009;-71
2023/08/13 20:25:53;;;;;;;5.75;3.97;;;;;;;;;;12873237;23;19992;-74
2023/08/13 20:30:53;;;;;;;7.07;4.22;;;;;;;;;;12853359;23;20005;-78
2023/08/13 20:35:54;;;;;;;6.38;3.70;;;;;;;;;;12874184;23;20087;-80
2023/08/13 20:40:58;;;;;;;7.45;4.93;;;;;;;;;;12875160;23;19997;-70
2023/08/13 20:45:58;;;;;;;14.38;4.20;;;;;;;;;;12876093;23;19988;-69
2023/08/13 20:50:58;;;;;;;6.17;4.37;;;;;;;;;;12879632;23;19992;-69
2023/08/13 20:55:59;;;;;;;6.57;4.15;;;;;;;;;;12879516;23;19988;-69
2023/08/13 21:00:59;;;;;;;5.63;4.20;;;;;;;;;;12879283;23;20016;-68
2023/08/13 21:05:59;;;;;;;8.80;4.53;;;;;;;;;;12878485;23;20282;-68
2023/08/13 21:11:00;;;;;;;11.00;4.23;;;;;;;;;;12879368;23;19989;-68
2023/08/13 21:16:00;;;;;;;6.13;4.72;;;;;;;;;;12878837;23;20231;-68
2023/08/13 21:21:00;;;;;;;7.45;4.88;;;;;;;;;;12867059;23;20059;-68
2023/08/13 21:26:01;;;;;;;6.75;4.80;;;;;;;;;;12878786;23;20000;-68
2023/08/13 21:31:01;;;;;;;7.70;5.22;;;;;;;;;;12878737;23;20326;-69
2023/08/13 21:36:01;;;;;;;17.23;4.78;;;;;;;;;;12877670;23;20009;-69
2023/08/13 21:41:02;;;;;;;7.75;5.03;;;;;;;;;;12855952;23;20008;-69
2023/08/13 21:46:02;;;;;;;7.30;4.57;;;;;;;;;;12878587;23;19984;-69
2023/08/13 21:51:02;;;;;;;7.28;4.30;;;;;;;;;;12856301;23;20356;-69
2023/08/13 21:56:02;;;;;;;7.70;4.85;;;;;;;;;;12878405;23;19999;-69
2023/08/13 22:01:03;;;;;;;5.50;4.05;;;;;;;;;;12878292;23;20000;-69
2023/08/13 22:06:03;;;;;;;8.38;4.97;;;;;;;;;;12878457;23;20001;-69
2023/08/13 22:11:03;;;;;;;9.27;5.22;;;;;;;;;;12855584;23;20278;-69
2023/08/13 22:16:04;;;;;;;5.93;4.15;;;;;;;;;;12878117;23;20019;-69
2023/08/13 22:21:04;;;;;;;8.18;5.25;;;;;;;;;;12865714;23;20329;-69
2023/08/13 22:26:04;;;;;;;6.03;4.15;;;;;;;;;;12877219;23;20001;-69
2023/08/13 22:31:05;;;;;;;6.40;4.20;;;;;;;;;;12877429;23;20076;-69
2023/08/13 22:36:05;;;;;;;10.25;4.20;;;;;;;;;;12877604;23;20031;-69
2023/08/13 22:41:05;;;;;;;8.23;4.63;;;;;;;;;;12877210;23;20050;-69
2023/08/13 22:46:06;;;;;;;7.30;4.07;;;;;;;;;;12876576;23;19988;-69
2023/08/13 22:51:06;;;;;;;4.10;3.53;;;;;;;;;;12877423;23;20007;-69
2023/08/13 22:56:07;;;;;;;10.15;3.70;;;;;;;;;;12854805;23;20039;-69
2023/08/13 23:01:07;;;;;;;7.13;4.15;;;;;;;;;;12876497;23;20155;-69
2023/08/13 23:06:07;;;;;;;5.07;3.80;;;;;;;;;;12876941;23;19989;-69
2023/08/13 23:11:08;;;;;;;5.90;3.90;;;;;;;;;;12876815;23;20001;-69
2023/08/13 23:16:08;;;;;;;6.15;4.28;;;;;;;;;;12876491;23;20242;-69
2023/08/13 23:21:08;;;;;;;4.28;3.65;;;;;;;;;;12864494;23;20012;-68
2023/08/13 23:26:08;;;;;;;5.70;4.20;;;;;;;;;;12876787;23;19993;-68
2023/08/13 23:31:10;;;;;;;5.07;4.30;;;;;;;;;;12876683;23;20104;-68
2023/08/13 23:36:11;;;;;;;8.05;3.75;;;;;;;;;;12855640;23;20222;-68
2023/08/13 23:41:12;;;;;;;4.80;3.83;;;;;;;;;;12876872;23;20016;-68
2023/08/13 23:46:12;;;;;;;7.20;3.28;;;;;;;;;;12876367;23;20001;-68
2023/08/13 23:51:12;;;;;;;4.70;3.72;;;;;;;;;;12854082;23;20020;-68
2023/08/13 23:56:12;;;;;;;5.67;3.60;;;;;;;;;;12877374;23;19992;-68
